createdAt,value
2022-10-23T00:01:44.695Z,12.77
2022-10-23T00:04:17.567Z,12.74
2022-10-23T00:06:45.998Z,12.76
2022-10-23T00:09:17.779Z,12.81
2022-10-23T00:11:50.251Z,12.84
2022-10-23T00:14:21.773Z,12.81
2022-10-23T00:16:49.007Z,12.79
2022-10-23T00:19:16.421Z,12.78
2022-10-23T00:21:43.686Z,12.82
2022-10-23T00:24:11.348Z,12.80
2022-10-23T00:26:40.640Z,12.82
2022-10-23T00:29:10.040Z,12.79
2022-10-23T00:31:38.632Z,12.81
2022-10-23T00:34:08.558Z,12.78
2022-10-23T00:36:37.776Z,12.86
2022-10-23T00:39:06.122Z,12.79
2022-10-23T00:41:33.686Z,12.77
2022-10-23T00:44:29.970Z,12.74
2022-10-23T00:46:59.049Z,12.77
2022-10-23T00:49:28.335Z,12.75
2022-10-23T00:52:05.047Z,12.75
2022-10-23T00:54:39.988Z,12.71
2022-10-23T00:57:12.694Z,12.73
2022-10-23T00:59:40.544Z,12.74
2022-10-23T01:02:08.166Z,12.65
2022-10-23T01:04:36.436Z,12.60
2022-10-23T01:07:33.255Z,12.48
2022-10-23T01:10:15.462Z,12.39
2022-10-23T01:12:56.883Z,12.35
2022-10-23T01:15:37.927Z,12.29
2022-10-23T01:18:37.294Z,12.17
2022-10-23T01:21:30.704Z,12.14
2022-10-23T01:24:09.237Z,12.08
2022-10-23T01:27:09.843Z,12.07
2022-10-23T01:30:01.578Z,12.00
2022-10-23T01:32:42.909Z,11.99
2022-10-23T01:35:24.286Z,11.88
2022-10-23T01:38:09.118Z,11.77
2022-10-23T01:41:02.178Z,11.80
2022-10-23T01:44:00.105Z,11.77
2022-10-23T01:46:28.884Z,11.72
2022-10-23T01:48:59.833Z,11.73
2022-10-23T01:51:31.993Z,11.73
2022-10-23T01:54:01.500Z,11.66
2022-10-23T01:56:35.924Z,11.62
2022-10-23T01:59:10.680Z,11.53
2022-10-23T02:01:44.370Z,11.54
2022-10-23T02:04:18.570Z,11.46
2022-10-23T02:06:45.961Z,11.42
2022-10-23T02:09:13.412Z,11.40
2022-10-23T02:11:54.928Z,11.35
2022-10-23T02:14:56.837Z,11.38
2022-10-23T02:17:49.223Z,11.30
2022-10-23T02:20:28.129Z,11.32
2022-10-23T02:23:19.123Z,11.35
2022-10-23T02:26:12.890Z,11.30
2022-10-23T02:28:51.943Z,11.29
2022-10-23T02:31:23.671Z,11.22
2022-10-23T02:33:50.923Z,11.30
2022-10-23T02:36:19.686Z,11.30
2022-10-23T02:38:47.004Z,11.29
2022-10-23T02:41:17.615Z,11.32
2022-10-23T02:44:50.543Z,11.30
2022-10-23T02:47:26.404Z,11.30
2022-10-23T02:50:33.262Z,11.30
2022-10-23T02:53:35.928Z,11.44
2022-10-23T02:56:36.658Z,11.55
2022-10-23T02:59:24.768Z,11.51
2022-10-23T03:02:02.595Z,11.55
2022-10-23T03:04:32.868Z,11.56
2022-10-23T03:07:00.458Z,11.48
2022-10-23T03:09:27.966Z,11.40
2022-10-23T03:11:55.475Z,11.45
2022-10-23T03:14:22.695Z,11.39
2022-10-23T03:16:50.111Z,11.47
2022-10-23T03:19:17.311Z,11.57
2022-10-23T03:21:44.655Z,11.58
2022-10-23T03:24:11.846Z,11.61
2022-10-23T03:26:39.240Z,11.60
2022-10-23T03:29:06.751Z,11.59
2022-10-23T03:31:34.125Z,11.65
2022-10-23T03:34:04.040Z,11.70
2022-10-23T03:36:33.679Z,11.69
2022-10-23T03:39:00.939Z,11.66
2022-10-23T03:41:28.511Z,11.72
2022-10-23T03:43:55.752Z,11.74
2022-10-23T03:46:23.590Z,11.77
2022-10-23T03:48:50.730Z,11.78
2022-10-23T03:51:18.161Z,11.80
2022-10-23T03:53:45.363Z,11.81
2022-10-23T03:56:12.722Z,11.86
2022-10-23T03:58:39.959Z,11.86
2022-10-23T04:01:07.538Z,11.88
2022-10-23T04:03:34.865Z,11.88
2022-10-23T04:06:02.283Z,11.85
2022-10-23T04:08:29.462Z,11.88
2022-10-23T04:10:57.155Z,11.93
2022-10-23T04:13:24.353Z,11.95
2022-10-23T04:15:53.761Z,11.95
2022-10-23T04:18:20.977Z,11.95
2022-10-23T04:20:50.867Z,11.97
2022-10-23T04:23:18.741Z,11.99
2022-10-23T04:28:15.257Z,12.05
2022-10-23T04:30:42.711Z,12.02
2022-10-23T04:33:09.910Z,12.00
2022-10-23T04:35:37.357Z,11.98
2022-10-23T04:38:04.615Z,12.00
2022-10-23T04:40:32.058Z,11.97
2022-10-23T04:42:59.315Z,12.08
2022-10-23T04:45:27.091Z,12.07
2022-10-23T04:47:54.350Z,12.08
2022-10-23T04:50:22.196Z,12.08
2022-10-23T04:52:53.547Z,12.09
2022-10-23T04:55:21.119Z,12.03
2022-10-23T04:57:48.782Z,12.05
2022-10-23T05:00:16.379Z,11.96
2022-10-23T05:02:44.375Z,12.02
2022-10-23T05:05:12.021Z,12.02
2022-10-23T05:07:39.727Z,12.04
2022-10-23T05:10:07.963Z,12.03
2022-10-23T05:12:35.137Z,12.04
2022-10-23T05:15:02.549Z,12.02
2022-10-23T05:17:40.392Z,12.06
2022-10-23T05:20:15.514Z,12.12
2022-10-23T05:22:46.311Z,12.13
2022-10-23T05:25:13.983Z,12.14
2022-10-23T05:27:41.450Z,12.19
2022-10-23T05:30:10.568Z,12.27
2022-10-23T05:32:39.088Z,12.19
2022-10-23T05:35:16.787Z,12.24
2022-10-23T05:37:48.119Z,12.25
2022-10-23T05:40:15.996Z,12.29
2022-10-23T05:42:43.519Z,12.27
2022-10-23T05:45:11.991Z,12.28
2022-10-23T05:47:39.212Z,12.35
2022-10-23T05:50:07.284Z,12.32
2022-10-23T05:52:34.535Z,12.37
2022-10-23T05:55:02.004Z,12.46
2022-10-23T05:57:33.057Z,12.43
2022-10-23T06:00:00.641Z,12.45
2022-10-23T06:02:28.064Z,12.43
2022-10-23T06:04:55.279Z,12.41
2022-10-23T06:07:31.275Z,12.36
2022-10-23T06:10:00.927Z,12.33
2022-10-23T06:12:28.369Z,12.40
2022-10-23T06:14:55.647Z,12.43
2022-10-23T06:17:23.007Z,12.32
2022-10-23T06:19:50.199Z,12.39
2022-10-23T06:22:17.586Z,12.50
2022-10-23T06:24:44.807Z,12.48
2022-10-23T06:27:12.154Z,12.54
2022-10-23T06:29:39.499Z,12.60
2022-10-23T06:32:07.044Z,12.68
2022-10-23T06:34:34.393Z,12.69
2022-10-23T06:37:02.025Z,12.79
2022-10-23T06:39:31.976Z,12.87
2022-10-23T06:41:59.832Z,12.96
2022-10-23T06:44:26.981Z,12.97
2022-10-23T06:46:54.370Z,13.02
2022-10-23T06:49:21.525Z,13.03
2022-10-23T06:51:48.963Z,13.07
2022-10-23T06:54:16.137Z,13.16
2022-10-23T06:56:43.325Z,13.23
2022-10-23T06:59:10.670Z,13.33
2022-10-23T07:01:38.473Z,13.48
2022-10-23T07:04:06.056Z,13.60
2022-10-23T07:06:33.237Z,13.78
2022-10-23T07:09:00.673Z,13.87
2022-10-23T07:11:27.902Z,14.05
2022-10-23T07:13:55.400Z,14.20
2022-10-23T07:16:23.977Z,14.46
2022-10-23T07:19:01.306Z,14.51
2022-10-23T07:21:37.282Z,14.69
2022-10-23T07:24:05.177Z,14.80
2022-10-23T07:26:32.976Z,14.94
2022-10-23T07:29:00.362Z,15.11
2022-10-23T07:31:28.495Z,15.11
2022-10-23T07:33:56.207Z,14.94
2022-10-23T07:36:23.849Z,15.04
2022-10-23T07:38:52.379Z,15.14
2022-10-23T07:41:19.891Z,15.29
2022-10-23T07:43:47.402Z,15.29
2022-10-23T07:46:14.751Z,15.26
2022-10-23T07:48:42.410Z,15.02
2022-10-23T07:51:14.696Z,14.88
2022-10-23T07:53:44.624Z,15.54
2022-10-23T07:56:22.385Z,15.63
2022-10-23T07:58:53.840Z,15.60
2022-10-23T08:01:37.182Z,15.16
2022-10-23T08:04:05.610Z,14.93
2022-10-23T08:06:35.393Z,14.78
2022-10-23T08:09:06.507Z,14.75
2022-10-23T08:11:37.553Z,14.62
2022-10-23T08:14:06.877Z,14.62
2022-10-23T08:16:37.728Z,14.51
2022-10-23T08:19:07.977Z,14.54
2022-10-23T08:21:35.289Z,14.42
2022-10-23T08:24:02.687Z,14.33
2022-10-23T08:26:30.004Z,14.39
2022-10-23T08:28:59.863Z,14.38
2022-10-23T08:31:27.239Z,14.33
2022-10-23T08:33:54.709Z,14.48
2022-10-23T08:36:28.146Z,14.55
2022-10-23T08:38:58.070Z,14.57
2022-10-23T08:41:31.182Z,14.65
2022-10-23T08:44:55.882Z,14.77
2022-10-23T08:47:53.326Z,15.15
2022-10-23T08:50:26.685Z,15.36
2022-10-23T08:53:25.448Z,15.64
2022-10-23T08:56:04.671Z,15.91
2022-10-23T08:58:46.913Z,16.54
2022-10-23T09:07:20.683Z,17.55
2022-10-23T09:10:42.799Z,16.91
2022-10-23T09:13:48.296Z,16.28
2022-10-23T09:16:30.300Z,16.21
2022-10-23T09:18:58.592Z,16.20
2022-10-23T09:21:29.688Z,16.22
2022-10-23T09:23:57.289Z,16.15
2022-10-23T09:26:24.752Z,16.02
2022-10-23T09:29:02.827Z,15.93
2022-10-23T09:31:30.226Z,15.95
2022-10-23T09:34:01.451Z,15.90
2022-10-23T09:36:29.876Z,15.82
2022-10-23T09:38:59.966Z,15.44
2022-10-23T09:41:31.574Z,15.15
2022-10-23T09:44:04.469Z,15.01
2022-10-23T09:46:47.856Z,14.72
2022-10-23T09:49:35.371Z,14.83
2022-10-23T09:52:35.136Z,14.87
2022-10-23T09:55:19.904Z,15.15
2022-10-23T09:57:48.150Z,15.50
2022-10-23T10:00:25.257Z,15.79
2022-10-23T10:03:06.351Z,16.33
2022-10-23T10:05:41.483Z,17.04
2022-10-23T10:08:28.547Z,17.64
2022-10-23T10:11:06.863Z,18.11
2022-10-23T10:13:34.223Z,18.83
2022-10-23T10:16:27.444Z,20.01
2022-10-23T10:19:20.663Z,20.87
2022-10-23T10:22:08.867Z,21.52
2022-10-23T10:25:02.962Z,21.75
2022-10-23T10:28:12.658Z,23.47
2022-10-23T10:31:30.645Z,25.35
2022-10-23T10:34:07.125Z,24.64
2022-10-23T10:37:29.596Z,26.65
2022-10-23T10:40:23.658Z,28.64
2022-10-23T10:43:38.354Z,32.66
2022-10-23T10:46:23.251Z,29.63
2022-10-23T10:49:26.907Z,29.41
2022-10-23T10:52:03.166Z,29.67
2022-10-23T10:54:53.642Z,32.23
2022-10-23T10:57:37.146Z,33.47
2022-10-23T11:00:18.277Z,36.70
2022-10-23T11:02:49.833Z,37.87
2022-10-23T11:05:35.033Z,38.37
2022-10-23T11:08:22.344Z,39.16
2022-10-23T11:11:00.485Z,37.25
2022-10-23T11:13:43.071Z,37.28
2022-10-23T11:16:20.237Z,37.50
2022-10-23T11:19:17.733Z,37.02
2022-10-23T11:22:20.823Z,36.10
2022-10-23T11:24:57.245Z,34.07
2022-10-23T11:27:34.476Z,32.32
2022-10-23T11:30:08.720Z,30.31
2022-10-23T11:33:12.954Z,28.70
2022-10-23T11:35:54.483Z,26.68
2022-10-23T11:38:30.053Z,26.05
2022-10-23T11:41:19.874Z,27.36
2022-10-23T11:44:01.572Z,30.95
2022-10-23T11:46:38.778Z,32.29
2022-10-23T11:49:21.274Z,31.37
2022-10-23T11:52:03.042Z,31.26
2022-10-23T11:54:30.623Z,32.61
2022-10-23T11:57:17.699Z,32.62
2022-10-23T11:59:48.195Z,33.25
2022-10-23T12:02:33.116Z,32.08
2022-10-23T12:05:08.780Z,31.54
2022-10-23T12:07:41.972Z,29.95
2022-10-23T12:10:30.062Z,28.36
2022-10-23T12:13:00.043Z,27.70
2022-10-23T12:15:28.730Z,29.63
2022-10-23T12:18:17.099Z,34.26
2022-10-23T12:20:53.402Z,36.77
2022-10-23T12:23:38.771Z,38.79
2022-10-23T12:26:33.594Z,40.46
2022-10-23T12:30:01.867Z,40.49
2022-10-23T12:32:54.399Z,38.30
2022-10-23T12:35:59.079Z,38.12
2022-10-23T12:38:33.851Z,37.87
2022-10-23T12:41:26.143Z,38.57
2022-10-23T12:44:05.717Z,39.49
2022-10-23T12:47:04.423Z,38.91
2022-10-23T12:49:34.231Z,38.26
2022-10-23T12:52:05.897Z,37.84
2022-10-23T12:54:39.435Z,38.38
2022-10-23T12:57:30.362Z,38.09
2022-10-23T13:00:04.612Z,37.41
2022-10-23T13:02:34.395Z,36.62
2022-10-23T13:05:07.445Z,35.42
2022-10-23T13:07:42.731Z,35.00
2022-10-23T13:10:23.781Z,35.16
2022-10-23T13:13:04.788Z,35.36
2022-10-23T13:15:44.916Z,35.24
2022-10-23T13:18:15.589Z,34.95
2022-10-23T13:21:03.470Z,34.98
2022-10-23T13:23:34.983Z,34.81
2022-10-23T13:26:07.043Z,34.65
2022-10-23T13:28:52.647Z,34.14
2022-10-23T13:31:33.665Z,34.12
2022-10-23T13:34:00.799Z,34.09
2022-10-23T13:36:37.107Z,33.81
2022-10-23T13:39:10.510Z,33.44
2022-10-23T13:41:44.995Z,33.06
2022-10-23T13:44:18.963Z,33.73
2022-10-23T13:46:48.399Z,34.18
2022-10-23T13:49:16.744Z,34.27
2022-10-23T13:51:54.459Z,34.43
2022-10-23T13:57:00.376Z,32.50
2022-10-23T13:59:27.678Z,31.23
2022-10-23T14:01:55.340Z,30.47
2022-10-23T14:04:23.750Z,30.46
2022-10-23T14:06:54.835Z,30.27
2022-10-23T14:09:22.072Z,30.05
2022-10-23T14:11:49.562Z,29.43
2022-10-23T14:14:16.784Z,29.27
2022-10-23T14:16:44.187Z,28.78
2022-10-23T14:19:11.879Z,28.40
2022-10-23T14:21:39.309Z,28.14
2022-10-23T14:24:06.928Z,27.35
2022-10-23T14:26:34.414Z,26.98
2022-10-23T14:29:05.153Z,26.77
2022-10-23T14:31:37.308Z,26.68
2022-10-23T14:34:04.569Z,26.21
2022-10-23T14:36:38.874Z,25.86
2022-10-23T14:39:17.649Z,25.62
2022-10-23T14:41:45.234Z,25.24
2022-10-23T14:44:12.489Z,24.88
2022-10-23T14:46:39.904Z,24.33
2022-10-23T14:49:07.117Z,23.81
2022-10-23T14:51:34.644Z,23.56
2022-10-23T14:54:05.512Z,23.24
2022-10-23T14:56:37.802Z,22.94
2022-10-23T14:59:05.712Z,22.65
2022-10-23T15:01:43.494Z,22.33
2022-10-23T15:04:14.832Z,22.16
2022-10-23T15:06:44.266Z,21.91
2022-10-23T15:09:11.617Z,21.63
2022-10-23T15:11:39.229Z,21.43
2022-10-23T15:14:07.425Z,21.18
2022-10-23T15:16:41.400Z,21.05
2022-10-23T15:19:15.170Z,20.83
2022-10-23T15:21:48.056Z,20.64
2022-10-23T15:24:17.374Z,20.26
2022-10-23T15:26:45.335Z,20.10
2022-10-23T15:29:14.834Z,19.96
2022-10-23T15:32:01.991Z,19.76
2022-10-23T15:34:30.488Z,19.67
2022-10-23T15:36:58.906Z,19.52
2022-10-23T15:39:33.696Z,19.39
2022-10-23T15:42:03.616Z,19.31
2022-10-23T15:44:33.618Z,19.19
2022-10-23T15:47:01.231Z,19.10
2022-10-23T15:49:30.091Z,18.97
2022-10-23T15:51:57.933Z,18.83
2022-10-23T15:54:28.121Z,18.75
2022-10-23T15:56:58.255Z,18.61
2022-10-23T15:59:26.497Z,18.48
2022-10-23T16:01:54.178Z,18.38
2022-10-23T16:04:22.143Z,18.26
2022-10-23T16:06:49.921Z,18.16
2022-10-23T16:09:17.609Z,18.04
2022-10-23T16:11:45.443Z,17.95
2022-10-23T16:14:17.246Z,17.89
2022-10-23T16:16:44.792Z,17.75
2022-10-23T16:19:12.861Z,17.64
2022-10-23T16:21:41.930Z,17.55
2022-10-23T16:24:10.226Z,17.49
2022-10-23T16:26:38.489Z,17.39
2022-10-23T16:29:08.569Z,17.29
2022-10-23T16:31:36.372Z,17.25
2022-10-23T16:34:05.588Z,17.15
2022-10-23T16:36:34.120Z,17.04
2022-10-23T16:39:03.681Z,16.95
2022-10-23T16:41:32.338Z,16.89
2022-10-23T16:43:59.986Z,16.81
2022-10-23T16:46:28.087Z,16.77
2022-10-23T16:48:55.411Z,16.71
2022-10-23T16:51:26.174Z,16.64
2022-10-23T16:53:54.046Z,16.59
2022-10-23T16:56:25.294Z,16.56
2022-10-23T16:58:52.692Z,16.51
2022-10-23T17:01:32.985Z,16.48
2022-10-23T17:04:01.415Z,16.46
2022-10-23T17:06:32.424Z,16.40
2022-10-23T17:09:02.022Z,16.35
2022-10-23T17:11:37.050Z,16.32
2022-10-23T17:14:08.030Z,16.28
2022-10-23T17:16:37.809Z,16.28
2022-10-23T17:19:15.929Z,16.29
2022-10-23T17:21:56.184Z,16.27
2022-10-23T17:24:24.802Z,16.27
2022-10-23T17:26:54.062Z,16.27
2022-10-23T17:29:21.720Z,16.24
2022-10-23T17:31:50.865Z,16.20
2022-10-23T17:34:22.995Z,16.14
2022-10-23T17:36:53.575Z,16.13
2022-10-23T17:39:25.656Z,16.12
2022-10-23T17:41:54.266Z,16.12
2022-10-23T17:44:22.603Z,16.12
2022-10-23T17:46:53.674Z,16.12
2022-10-23T17:49:22.442Z,16.06
2022-10-23T17:51:58.241Z,16.01
2022-10-23T17:54:27.295Z,15.99
2022-10-23T17:56:56.508Z,15.96
2022-10-23T17:59:23.965Z,15.94
2022-10-23T18:01:51.729Z,15.93
2022-10-23T18:04:20.475Z,15.91
2022-10-23T18:06:52.720Z,15.88
2022-10-23T18:09:22.003Z,15.97
2022-10-23T18:11:50.384Z,15.96
2022-10-23T18:14:21.480Z,15.88
2022-10-23T18:16:50.876Z,15.80
2022-10-23T18:19:19.677Z,15.72
2022-10-23T18:21:48.302Z,15.68
2022-10-23T18:24:16.677Z,15.61
2022-10-23T18:26:44.752Z,15.57
2022-10-23T18:29:13.798Z,15.57
2022-10-23T18:31:42.401Z,15.50
2022-10-23T18:34:23.799Z,15.47
2022-10-23T18:36:54.399Z,15.33
2022-10-23T18:39:25.312Z,15.13
2022-10-23T18:41:57.044Z,15.11
2022-10-23T18:44:29.115Z,15.03
2022-10-23T18:46:59.300Z,14.98
2022-10-23T18:49:27.076Z,14.92
2022-10-23T18:51:54.977Z,14.86
2022-10-23T18:54:22.963Z,14.83
2022-10-23T18:56:51.002Z,14.81
2022-10-23T18:59:20.684Z,14.79
2022-10-23T19:01:49.826Z,14.75
2022-10-23T19:04:18.509Z,14.79
2022-10-23T19:06:48.770Z,14.75
2022-10-23T19:09:16.600Z,14.73
2022-10-23T19:11:45.604Z,14.65
2022-10-23T19:14:13.492Z,14.68
2022-10-23T19:17:00.426Z,14.68
2022-10-23T19:19:35.908Z,14.53
2022-10-23T19:22:04.908Z,14.44
2022-10-23T19:24:43.862Z,14.45
2022-10-23T19:27:11.861Z,14.38
2022-10-23T19:29:45.134Z,14.23
2022-10-23T19:32:13.043Z,14.25
2022-10-23T19:34:40.870Z,14.27
2022-10-23T19:37:08.461Z,14.24
2022-10-23T19:39:35.942Z,14.20
2022-10-23T19:42:03.470Z,14.15
2022-10-23T19:44:31.516Z,14.10
2022-10-23T19:46:58.953Z,14.04
2022-10-23T19:49:26.236Z,13.99
2022-10-23T19:51:53.779Z,13.95
2022-10-23T19:54:21.833Z,13.88
2022-10-23T19:56:50.247Z,13.87
2022-10-23T19:59:18.309Z,13.84
2022-10-23T20:01:48.111Z,13.82
2022-10-23T20:04:19.823Z,13.82
2022-10-23T20:06:48.152Z,13.80
2022-10-23T20:09:15.778Z,13.80
2022-10-23T20:11:45.301Z,13.78
2022-10-23T20:14:13.698Z,13.83
2022-10-23T20:16:44.895Z,13.82
2022-10-23T20:21:49.439Z,13.89
2022-10-23T20:24:19.147Z,13.79
2022-10-23T20:26:52.291Z,13.77
2022-10-23T20:29:20.950Z,13.59
2022-10-23T20:31:48.684Z,13.66
2022-10-23T20:34:16.081Z,13.69
2022-10-23T20:36:47.408Z,13.69
2022-10-23T20:39:19.354Z,13.63
2022-10-23T20:41:47.370Z,13.59
2022-10-23T20:46:50.834Z,13.45
2022-10-23T20:49:19.623Z,13.45
2022-10-23T20:51:54.999Z,13.42
2022-10-23T20:54:28.766Z,13.31
2022-10-23T20:56:57.190Z,13.34
2022-10-23T20:59:25.457Z,13.32
2022-10-23T21:01:55.366Z,13.34
2022-10-23T21:04:27.476Z,13.34
2022-10-23T21:07:09.441Z,13.30
2022-10-23T21:09:39.287Z,13.30
2022-10-23T21:12:07.935Z,13.27
2022-10-23T21:14:36.161Z,13.29
2022-10-23T21:17:03.975Z,13.16
2022-10-23T21:19:31.311Z,13.14
2022-10-23T21:21:58.645Z,13.17
2022-10-23T21:24:25.895Z,13.17
2022-10-23T21:26:53.254Z,13.14
2022-10-23T21:29:20.936Z,13.05
2022-10-23T21:32:01.139Z,13.08
2022-10-23T21:34:29.407Z,13.08
2022-10-23T21:37:14.251Z,13.05
2022-10-23T21:39:44.110Z,13.00
2022-10-23T21:42:13.648Z,13.04
2022-10-23T21:44:41.048Z,13.07
2022-10-23T21:47:08.693Z,13.09
2022-10-23T21:49:36.026Z,13.09
2022-10-23T21:52:05.009Z,13.11
2022-10-23T21:54:32.733Z,13.13
2022-10-23T21:57:00.195Z,13.12
2022-10-23T21:59:30.160Z,13.14
2022-10-23T22:01:59.821Z,13.25
2022-10-23T22:04:27.116Z,13.22
2022-10-23T22:06:54.627Z,13.19
2022-10-23T22:09:22.478Z,13.16
2022-10-23T22:11:52.429Z,13.11
2022-10-23T22:14:22.310Z,13.16
2022-10-23T22:16:50.135Z,13.14
2022-10-23T22:19:19.289Z,13.19
2022-10-23T22:21:48.036Z,13.21
2022-10-23T22:24:17.649Z,13.25
2022-10-23T22:26:52.231Z,13.34
2022-10-23T22:29:26.409Z,13.26
2022-10-23T22:31:54.226Z,13.26
2022-10-23T22:34:48.318Z,13.20
2022-10-23T22:37:13.575Z,13.24
2022-10-23T22:39:41.269Z,13.19
2022-10-23T22:42:08.979Z,13.20
2022-10-23T22:44:36.200Z,13.22
2022-10-23T22:47:03.862Z,13.11
2022-10-23T22:49:31.104Z,13.10
2022-10-23T22:51:58.677Z,13.15
2022-10-23T22:54:25.856Z,13.16
2022-10-23T22:56:53.265Z,13.17
2022-10-23T22:59:20.439Z,13.15
2022-10-23T23:01:49.384Z,13.13
2022-10-23T23:07:12.247Z,12.99
2022-10-23T23:09:44.520Z,12.94
2022-10-23T23:12:14.274Z,12.92
2022-10-23T23:14:42.730Z,12.87
2022-10-23T23:17:10.775Z,12.85
2022-10-23T23:19:38.414Z,12.84
2022-10-23T23:22:06.603Z,12.84
2022-10-23T23:24:34.296Z,12.83
2022-10-23T23:27:04.774Z,12.81
2022-10-23T23:29:32.450Z,12.77
2022-10-23T23:31:59.939Z,12.77
2022-10-23T23:34:27.154Z,12.77
2022-10-23T23:36:54.582Z,12.77
2022-10-23T23:39:21.868Z,12.81
2022-10-23T23:41:49.395Z,12.74
2022-10-23T23:44:16.979Z,12.74
2022-10-23T23:46:44.826Z,12.82
2022-10-23T23:49:12.121Z,12.80
2022-10-23T23:51:39.584Z,12.78
2022-10-23T23:54:06.884Z,12.75
2022-10-23T23:56:34.288Z,12.74
2022-10-23T23:59:01.621Z,12.70
